Terminal Aerodrome Forecast
Issued by NWS Binghamton, NY

Home | Current Version | Previous Version | Text Only | Print | Product List | Glossary On
Versions: 1 2 3 4 5 6 7 8 9 10 11 12 13 14 15 16 17 18 19 20 21 22 23 24 25 26 27 28
000
FTUS41 KBGM 241000 AAB
TAFSYR
TAF AMD
KSYR 241003Z 2410/2506 31008KT P6SM SCT020 BKN040
      TEMPO 2410/2412 -RA OVC020
     FM241200 31010KT P6SM SCT100
     FM242300 28006KT P6SM SKC=

USA.gov is the U.S. government's official web portal to all federal, state and local government web resources and services.